Time;durP1;ratioP1;P1;durP2;ratioP2;P2;SDS_P1;SDS_P2;PMS_P1;PMS_P2;Temp;Humidity;BMP_temperature;BMP_pressure;BME280_temperature;BME280_humidity;BME280_pressure;Samples;Min_cycle;Max_cycle;Signal;HPM_P1;HPM_P2
2021/01/23 00:02:05;;;;;;;20.70;13.52;;;333.60;1459.20;;;;;;4918040;29;20111;-68
2021/01/23 00:04:31;;;;;;;33.58;20.77;;;333.40;1484.80;;;;;;4917463;29;20035;-74
2021/01/23 00:06:57;;;;;;;51.42;30.92;;;333.60;1433.60;;;;;;4934560;29;20097;-74
2021/01/23 00:09:23;;;;;;;25.23;15.70;;;333.60;1433.60;;;;;;4936631;29;20034;-72
2021/01/23 00:11:50;;;;;;;60.65;33.42;;;333.20;1510.40;;;;;;4936766;29;20027;-73
2021/01/23 00:14:15;;;;;;;58.13;36.08;;;333.30;1484.80;;;;;;4936860;29;20105;-71
2021/01/23 00:16:42;;;;;;;64.28;36.90;;;333.20;1510.40;;;;;;4936687;29;20019;-73
2021/01/23 00:19:08;;;;;;;65.82;38.55;;;333.30;1484.80;;;;;;4936841;29;20394;-71
2021/01/23 00:21:33;;;;;;;36.92;23.08;;;333.30;1484.80;;;;;;4936165;29;20023;-71
2021/01/23 00:23:59;;;;;;;130.52;72.05;;;333.20;1484.80;;;;;;4936426;29;20399;-73
2021/01/23 00:26:25;;;;;;;84.20;49.17;;;333.40;1484.80;;;;;;4936370;29;20028;-73
2021/01/23 00:28:50;;;;;;;57.33;34.70;;;333.40;1484.80;;;;;;4936411;29;20035;-72
2021/01/23 00:31:16;;;;;;;54.22;32.40;;;333.40;1459.20;;;;;;4936199;29;20527;-74
2021/01/23 00:33:41;;;;;;;27.95;17.05;;;333.40;1459.20;;;;;;4936082;29;20443;-69
2021/01/23 00:36:08;;;;;;;47.80;27.20;;;333.30;1484.80;;;;;;4935874;29;20032;-72
2021/01/23 00:38:34;;;;;;;22.08;13.27;;;333.30;1484.80;;;;;;4936025;29;20179;-72
2021/01/23 00:40:59;;;;;;;22.77;11.13;;;333.30;1459.20;;;;;;4936119;29;20114;-72
2021/01/23 00:43:25;;;;;;;50.90;30.27;;;333.50;1459.20;;;;;;4935910;29;20055;-67
2021/01/23 00:45:51;;;;;;;23.10;12.82;;;333.50;1433.60;;;;;;4936071;29;20042;-73
2021/01/23 00:48:16;;;;;;;21.92;12.05;;;333.50;1433.60;;;;;;4935892;29;20059;-76
2021/01/23 00:50:43;;;;;;;31.02;16.45;;;333.20;1484.80;;;;;;4935904;29;20521;-72
2021/01/23 00:53:08;;;;;;;40.50;22.23;;;333.20;1510.40;;;;;;4934639;29;20471;-70
2021/01/23 00:55:34;;;;;;;17.48;10.65;;;333.00;1484.80;;;;;;4935500;29;20063;-73
2021/01/23 00:58:00;;;;;;;16.13;8.80;;;333.10;1459.20;;;;;;4935814;29;20028;-72
2021/01/23 01:00:26;;;;;;;20.02;10.63;;;333.30;1433.60;;;;;;4935404;29;20391;-76
2021/01/23 01:02:51;;;;;;;28.98;16.13;;;333.40;1433.60;;;;;;4935685;29;20030;-76
2021/01/23 01:05:18;;;;;;;100.50;50.97;;;333.60;1433.60;;;;;;4930455;29;20494;-74
2021/01/23 01:07:43;;;;;;;59.55;35.58;;;333.60;1433.60;;;;;;4935758;29;20027;-71
2021/01/23 01:10:10;;;;;;;35.88;21.25;;;333.50;1459.20;;;;;;4935626;29;20060;-73
2021/01/23 01:12:36;;;;;;;40.55;22.67;;;333.40;1459.20;;;;;;4935498;29;20083;-73
2021/01/23 01:15:03;;;;;;;48.53;32.38;;;333.60;1433.60;;;;;;4935528;29;20075;-73
2021/01/23 01:17:28;;;;;;;74.90;44.45;;;333.40;1433.60;;;;;;4935949;29;20030;-75
2021/01/23 01:19:54;;;;;;;101.70;57.65;;;333.30;1459.20;;;;;;4935769;29;20031;-69
2021/01/23 01:22:20;;;;;;;38.90;23.00;;;333.40;1433.60;;;;;;4934654;29;20024;-72
2021/01/23 01:24:45;;;;;;;74.88;40.63;;;333.70;1408.00;;;;;;4935609;29;20034;-74
2021/01/23 01:27:11;;;;;;;68.22;43.20;;;333.70;1408.00;;;;;;4935836;29;20032;-72
2021/01/23 01:29:37;;;;;;;34.65;22.60;;;333.70;1408.00;;;;;;4936048;29;20034;-74
2021/01/23 01:32:02;;;;;;;19.30;11.80;;;358.40;1356.80;;;;;;4935569;29;20466;-73
2021/01/23 01:34:28;;;;;;;11.10;7.30;;;358.60;1305.60;;;;;;4938715;29;20506;-73
2021/01/23 01:36:54;;;;;;;6.65;4.22;;;358.70;1280.00;;;;;;4939546;29;20030;-75
2021/01/23 01:39:19;;;;;;;4.38;2.95;;;358.90;1254.40;;;;;;4939814;29;20043;-73
2021/01/23 01:41:45;;;;;;;16.00;8.13;;;359.00;1228.80;;;;;;4939754;29;20027;-75
2021/01/23 01:44:11;;;;;;;9.43;5.63;;;359.10;1228.80;;;;;;4939801;29;20048;-71
2021/01/23 01:46:39;;;;;;;28.88;12.23;;;359.20;1228.80;;;;;;4939385;29;20024;-72
2021/01/23 01:49:06;;;;;;;7.68;4.35;;;359.30;1203.20;;;;;;4938176;29;20075;-75
2021/01/23 01:51:32;;;;;;;28.52;12.68;;;359.20;1203.20;;;;;;4939530;29;20028;-74
2021/01/23 01:53:59;;;;;;;12.68;6.40;;;359.30;1203.20;;;;;;4939394;29;20030;-76
2021/01/23 01:56:25;;;;;;;8.73;4.65;;;384.00;1177.60;;;;;;4939144;29;20485;-75
2021/01/23 01:58:50;;;;;;;9.23;4.88;;;384.10;1177.60;;;;;;4939263;29;20118;-70
2021/01/23 02:01:17;;;;;;;10.60;5.47;;;384.30;1177.60;;;;;;4939113;29;20107;-70
2021/01/23 02:04:03;;;;;;;7.45;3.83;;;384.30;1152.00;;;;;;4939319;29;20478;-73
2021/01/23 02:06:52;;;;;;;6.60;2.90;;;384.30;1152.00;;;;;;4935727;29;20057;-70
2021/01/23 02:09:36;;;;;;;4.75;2.90;;;384.30;1152.00;;;;;;4919861;29;20044;-70
2021/01/23 02:12:26;;;;;;;13.68;8.48;;;384.30;1152.00;;;;;;4920059;29;20039;-70
2021/01/23 02:14:57;;;;;;;6.45;3.85;;;384.30;1152.00;;;;;;4920095;29;20032;-68
2021/01/23 02:17:36;;;;;;;5.10;3.07;;;384.20;1152.00;;;;;;4920020;29;20112;-71
2021/01/23 02:20:15;;;;;;;7.47;4.40;;;384.30;1152.00;;;;;;4919944;29;20294;-71
2021/01/23 02:23:14;;;;;;;6.63;3.33;;;384.40;1152.00;;;;;;4919819;29;20028;-70
2021/01/23 02:25:55;;;;;;;9.48;4.88;;;384.40;1126.40;;;;;;4919598;29;20032;-70
2021/01/23 02:28:26;;;;;;;11.50;5.38;;;384.40;1126.40;;;;;;4919736;29;20554;-75
2021/01/23 02:31:07;;;;;;;;;;;384.50;1126.40;;;;;;4920214;29;20032;-70
2021/01/23 02:33:35;;;;;;;10.68;6.20;;;384.40;1126.40;;;;;;4919608;29;19914;-74
2021/01/23 02:36:02;;;;;;;18.67;9.65;;;384.30;1126.40;;;;;;4928711;29;20051;-71
2021/01/23 02:38:33;;;;;;;57.22;24.52;;;384.40;1152.00;;;;;;4938445;29;20386;-74
2021/01/23 02:41:01;;;;;;;50.88;22.25;;;384.40;1152.00;;;;;;4938557;29;20373;-70
2021/01/23 02:43:28;;;;;;;11.20;5.50;;;384.30;1152.00;;;;;;4938429;29;20031;-75
2021/01/23 02:45:53;;;;;;;25.95;10.52;;;384.40;1126.40;;;;;;4937711;29;20115;-74
2021/01/23 02:48:19;;;;;;;56.88;24.88;;;384.30;1152.00;;;;;;4938258;29;20404;-73
2021/01/23 02:50:45;;;;;;;49.47;20.25;;;384.10;1203.20;;;;;;4938394;29;20034;-72
2021/01/23 02:53:20;;;;;;;16.20;8.02;;;384.00;1203.20;;;;;;4938359;29;20494;-74
2021/01/23 02:55:49;;;;;;;49.70;19.25;;;384.00;1203.20;;;;;;4937842;29;20079;-67
2021/01/23 02:58:20;;;;;;;52.80;27.27;;;359.20;1228.80;;;;;;4926750;29;20131;-72
2021/01/23 03:00:48;;;;;;;31.98;16.83;;;359.20;1228.80;;;;;;4918033;29;20484;-69
2021/01/23 03:03:16;;;;;;;113.75;43.30;;;359.20;1228.80;;;;;;4917706;29;20044;-74
2021/01/23 03:05:43;;;;;;;158.40;62.35;;;359.20;1228.80;;;;;;4925356;29;20062;-76
2021/01/23 03:08:12;;;;;;;139.65;54.50;;;359.10;1228.80;;;;;;4937779;29;20111;-73
2021/01/23 03:10:43;;;;;;;89.05;36.42;;;359.00;1254.40;;;;;;4937557;29;20042;-68
2021/01/23 03:13:10;;;;;;;178.17;69.97;;;359.00;1254.40;;;;;;4937732;29;20027;-73
2021/01/23 03:15:36;;;;;;;130.35;54.03;;;358.90;1254.40;;;;;;4937594;29;20625;-71
2021/01/23 03:18:03;;;;;;;73.35;30.92;;;359.00;1254.40;;;;;;4936684;29;20035;-69
2021/01/23 03:20:29;;;;;;;263.63;99.55;;;358.90;1254.40;;;;;;4923729;29;20059;-75
2021/01/23 03:22:55;;;;;;;97.05;42.83;;;359.00;1228.80;;;;;;4918509;29;20028;-74
2021/01/23 03:25:22;;;;;;;108.43;49.65;;;359.00;1228.80;;;;;;4918401;29;20111;-73
2021/01/23 03:27:47;;;;;;;74.57;35.53;;;359.00;1228.80;;;;;;4918512;29;20557;-75
2021/01/23 03:30:14;;;;;;;59.97;27.48;;;358.90;1228.80;;;;;;4918504;29;20032;-72
2021/01/23 03:32:39;;;;;;;56.28;24.95;;;358.90;1228.80;;;;;;4918123;29;20044;-74
2021/01/23 03:35:06;;;;;;;71.97;33.40;;;359.00;1228.80;;;;;;4919375;29;20024;-75
2021/01/23 03:37:32;;;;;;;56.75;27.70;;;359.00;1228.80;;;;;;4937254;29;20430;-68
2021/01/23 03:39:58;;;;;;;22.08;12.02;;;359.20;1228.80;;;;;;4937064;29;20035;-71
2021/01/23 03:42:24;;;;;;;38.17;18.83;;;359.10;1228.80;;;;;;4937104;29;20020;-71
2021/01/23 03:44:50;;;;;;;16.08;8.85;;;358.90;1254.40;;;;;;4937150;29;20092;-72
2021/01/23 03:47:15;;;;;;;54.97;25.13;;;359.00;1228.80;;;;;;4937066;29;20074;-70
2021/01/23 03:49:41;;;;;;;31.33;17.35;;;359.10;1228.80;;;;;;4936972;29;20024;-72
2021/01/23 03:52:07;;;;;;;25.52;13.25;;;358.90;1254.40;;;;;;4936979;28;20391;-72
2021/01/23 03:54:33;;;;;;;48.03;21.67;;;358.90;1254.40;;;;;;4937077;29;20036;-69
2021/01/23 03:56:58;;;;;;;47.70;20.85;;;358.90;1254.40;;;;;;4921361;29;20523;-72
2021/01/23 03:59:24;;;;;;;64.70;30.50;;;358.90;1254.40;;;;;;4917750;29;20130;-71
2021/01/23 04:01:50;;;;;;;55.38;26.48;;;359.00;1254.40;;;;;;4917829;29;20046;-69
2021/01/23 04:04:15;;;;;;;80.55;37.65;;;359.00;1254.40;;;;;;4917557;29;20067;-70
2021/01/23 04:06:42;;;;;;;48.45;25.50;;;359.00;1228.80;;;;;;4931259;29;20109;-69
2021/01/23 04:09:08;;;;;;;24.70;13.73;;;359.00;1254.40;;;;;;4936629;29;20016;-71
2021/01/23 04:11:34;;;;;;;75.03;34.65;;;358.80;1280.00;;;;;;4936494;29;20035;-72
2021/01/23 04:13:59;;;;;;;24.98;13.98;;;358.90;1228.80;;;;;;4936611;29;20071;-71
2021/01/23 04:16:25;;;;;;;51.53;22.65;;;358.90;1254.40;;;;;;4936458;29;20435;-72
2021/01/23 04:18:51;;;;;;;96.68;43.30;;;358.80;1254.40;;;;;;4936322;29;20075;-71
2021/01/23 04:21:16;;;;;;;68.53;31.90;;;358.70;1254.40;;;;;;4936441;29;20398;-72
2021/01/23 04:23:44;;;;;;;51.15;23.15;;;358.80;1254.40;;;;;;4936495;29;20028;-72
2021/01/23 04:26:10;;;;;;;69.55;33.25;;;358.80;1228.80;;;;;;4936328;29;20111;-72
2021/01/23 04:28:36;;;;;;;119.53;59.95;;;358.80;1254.40;;;;;;4936159;29;20024;-73
2021/01/23 04:31:02;;;;;;;71.75;38.75;;;358.90;1228.80;;;;;;4936289;29;20087;-75
2021/01/23 04:33:28;;;;;;;48.65;26.52;;;359.00;1228.80;;;;;;4936425;29;20039;-75
2021/01/23 04:35:54;;;;;;;57.60;30.55;;;358.90;1254.40;;;;;;4936255;29;20032;-68
2021/01/23 04:38:19;;;;;;;53.83;29.05;;;358.80;1254.40;;;;;;4936065;29;20430;-73
2021/01/23 04:40:45;;;;;;;87.50;45.17;;;358.60;1280.00;;;;;;4930055;29;20044;-70
2021/01/23 04:43:11;;;;;;;96.00;51.50;;;358.40;1305.60;;;;;;4917007;29;20024;-72
2021/01/23 04:45:36;;;;;;;18.83;9.07;;;333.70;1305.60;;;;;;4917143;29;20036;-72
2021/01/23 04:48:02;;;;;;;24.15;11.38;;;333.70;1305.60;;;;;;4916943;29;20040;-71
2021/01/23 04:50:28;;;;;;;16.00;8.48;;;333.70;1305.60;;;;;;4916794;29;20031;-72
2021/01/23 04:52:53;;;;;;;24.98;14.15;;;358.50;1305.60;;;;;;4916144;29;20038;-68
2021/01/23 04:55:19;;;;;;;17.10;9.52;;;358.70;1280.00;;;;;;4916609;29;20484;-73
2021/01/23 04:57:45;;;;;;;53.63;33.05;;;358.70;1254.40;;;;;;4916714;29;20040;-73
2021/01/23 05:00:12;;;;;;;140.75;76.63;;;358.70;1254.40;;;;;;4916353;29;20042;-76
2021/01/23 05:02:38;;;;;;;80.85;43.15;;;358.70;1280.00;;;;;;4916782;29;20111;-75
2021/01/23 05:05:06;;;;;;;59.70;30.70;;;358.70;1280.00;;;;;;4917561;29;20111;-72
2021/01/23 05:07:34;;;;;;;45.15;24.50;;;358.50;1280.00;;;;;;4935518;29;20031;-75
2021/01/23 05:10:20;;;;;;;30.23;18.95;;;358.70;1280.00;;;;;;4935766;29;20028;-76
2021/01/23 05:12:52;;;;;;;64.60;36.35;;;358.40;1305.60;;;;;;4916094;29;20497;-75
2021/01/23 05:15:29;;;;;;;76.88;47.20;;;333.70;1305.60;;;;;;4914114;29;20016;-70
2021/01/23 05:17:56;;;;;;;37.13;20.48;;;358.40;1305.60;;;;;;4916320;29;20024;-72
2021/01/23 05:20:39;;;;;;;34.42;18.67;;;333.60;1331.20;;;;;;4915916;29;20051;-69
2021/01/23 05:23:28;;;;;;;29.00;16.88;;;333.30;1356.80;;;;;;4915960;29;20112;-70
2021/01/23 05:25:56;;;;;;;42.15;23.20;;;333.40;1331.20;;;;;;4915975;29;20060;-69
2021/01/23 05:28:31;;;;;;;48.28;26.00;;;333.50;1331.20;;;;;;4916099;29;20068;-69
2021/01/23 05:30:58;;;;;;;39.67;21.20;;;333.70;1331.20;;;;;;4916362;29;20043;-69
2021/01/23 05:33:28;;;;;;;65.00;38.50;;;358.50;1331.20;;;;;;4915992;29;20400;-69
2021/01/23 05:35:59;;;;;;;87.88;48.75;;;333.40;1356.80;;;;;;4923285;29;20062;-70
2021/01/23 05:38:25;;;;;;;47.92;26.13;;;333.50;1356.80;;;;;;4935296;29;20079;-70
2021/01/23 05:40:54;;;;;;;115.70;56.08;;;333.50;1331.20;;;;;;4935320;29;20031;-69
2021/01/23 05:43:34;;;;;;;115.43;55.53;;;333.70;1331.20;;;;;;4935321;29;20032;-71
2021/01/23 05:46:05;;;;;;;72.32;41.35;;;333.70;1305.60;;;;;;4935184;29;20034;-69
2021/01/23 05:48:32;;;;;;;68.10;38.92;;;358.40;1305.60;;;;;;4935592;29;20039;-70
2021/01/23 05:50:57;;;;;;;50.83;28.65;;;358.40;1305.60;;;;;;4935605;29;20040;-71
2021/01/23 05:53:23;;;;;;;42.20;27.02;;;358.50;1305.60;;;;;;4935713;29;20036;-70
2021/01/23 05:55:50;;;;;;;40.03;25.27;;;333.70;1305.60;;;;;;4935481;29;20482;-71
2021/01/23 05:58:16;;;;;;;33.80;22.05;;;333.60;1331.20;;;;;;4935577;29;20386;-70
2021/01/23 06:00:42;;;;;;;34.15;20.27;;;333.50;1331.20;;;;;;4935111;29;20040;-71
2021/01/23 06:03:09;;;;;;;46.80;27.77;;;333.40;1356.80;;;;;;4935115;29;20024;-69
2021/01/23 06:05:35;;;;;;;52.97;31.33;;;333.60;1331.20;;;;;;4934996;29;20464;-70
2021/01/23 06:08:01;;;;;;;94.55;64.78;;;333.70;1331.20;;;;;;4935158;29;20445;-71
2021/01/23 06:10:30;;;;;;;126.65;92.22;;;333.60;1331.20;;;;;;4933648;29;20128;-70
2021/01/23 06:12:56;;;;;;;58.53;39.60;;;333.70;1331.20;;;;;;4935289;29;20027;-70
2021/01/23 06:15:39;;;;;;;50.22;29.70;;;358.50;1305.60;;;;;;4934930;29;20023;-71
2021/01/23 06:18:06;;;;;;;50.65;28.17;;;358.50;1305.60;;;;;;4934978;29;20474;-70
2021/01/23 06:20:40;;;;;;;38.08;22.00;;;358.50;1305.60;;;;;;4935970;29;20122;-71
2021/01/23 06:23:16;;;;;;;39.22;24.48;;;333.70;1305.60;;;;;;4938498;29;20483;-70
2021/01/23 06:25:51;;;;;;;35.15;24.98;;;333.70;1305.60;;;;;;4938962;29;20038;-72
2021/01/23 06:28:37;;;;;;;33.60;19.35;;;333.70;1305.60;;;;;;4938455;29;20043;-70
2021/01/23 06:31:23;;;;;;;33.22;21.95;;;333.70;1280.00;;;;;;4938252;29;20034;-71
2021/01/23 06:33:49;;;;;;;38.80;25.17;;;358.50;1280.00;;;;;;4937552;29;20125;-70
2021/01/23 06:36:22;;;;;;;35.58;22.90;;;358.40;1305.60;;;;;;4938114;29;20154;-70
2021/01/23 06:39:03;;;;;;;33.40;20.15;;;358.50;1280.00;;;;;;4938202;29;20028;-71
2021/01/23 06:41:32;;;;;;;40.58;22.23;;;358.40;1280.00;;;;;;4938342;29;20040;-71
2021/01/23 06:44:07;;;;;;;38.95;23.08;;;358.50;1280.00;;;;;;4938031;29;20046;-71
2021/01/23 06:46:52;;;;;;;40.28;25.95;;;358.50;1280.00;;;;;;4938056;29;20114;-71
2021/01/23 06:49:18;;;;;;;38.45;22.55;;;358.40;1280.00;;;;;;4937338;29;20395;-71
2021/01/23 06:51:44;;;;;;;34.45;20.80;;;333.60;1305.60;;;;;;4938735;29;20042;-70
2021/01/23 06:54:16;;;;;;;35.30;18.65;;;358.40;1280.00;;;;;;4938105;29;20111;-70
2021/01/23 06:56:49;;;;;;;39.05;21.20;;;333.70;1280.00;;;;;;4937952;29;20059;-70
2021/01/23 06:59:24;;;;;;;29.40;16.38;;;358.40;1280.00;;;;;;4920520;29;20071;-71
2021/01/23 07:02:00;;;;;;;27.35;16.67;;;358.60;1254.40;;;;;;4918815;29;20490;-70
2021/01/23 07:04:27;;;;;;;13.82;8.25;;;358.70;1228.80;;;;;;4918632;29;20028;-71
2021/01/23 07:06:54;;;;;;;17.05;11.15;;;358.90;1203.20;;;;;;4933219;29;20028;-70
2021/01/23 07:09:20;;;;;;;14.95;7.55;;;359.00;1203.20;;;;;;4937727;29;20026;-70
2021/01/23 07:11:46;;;;;;;10.45;6.57;;;359.10;1177.60;;;;;;4937749;29;20020;-70
2021/01/23 07:14:12;;;;;;;15.70;8.90;;;359.30;1177.60;;;;;;4937661;29;20363;-70
2021/01/23 07:16:39;;;;;;;10.57;7.25;;;359.30;1177.60;;;;;;4937672;29;20457;-71
2021/01/23 07:19:07;;;;;;;14.68;12.00;;;384.10;1152.00;;;;;;4937333;29;20031;-70
2021/01/23 07:21:38;;;;;;;29.15;18.17;;;384.10;1152.00;;;;;;4937586;29;20479;-70
2021/01/23 07:24:04;;;;;;;26.27;15.43;;;384.10;1152.00;;;;;;4937480;29;20044;-71
2021/01/23 07:26:33;;;;;;;18.30;11.93;;;384.20;1152.00;;;;;;4937469;29;20273;-71
2021/01/23 07:28:59;;;;;;;15.82;8.93;;;384.30;1152.00;;;;;;4937108;29;20024;-70
2021/01/23 07:31:30;;;;;;;21.48;14.45;;;384.20;1152.00;;;;;;4936854;29;20083;-69
2021/01/23 07:33:57;;;;;;;24.65;15.85;;;384.30;1152.00;;;;;;4937144;29;20107;-70
2021/01/23 07:36:40;;;;;;;13.63;9.77;;;384.30;1152.00;;;;;;4933392;29;20458;-70
2021/01/23 07:39:07;;;;;;;18.38;11.20;;;384.40;1126.40;;;;;;4937529;29;20039;-70
2021/01/23 07:41:38;;;;;;;22.77;13.63;;;384.30;1152.00;;;;;;4937080;29;20024;-71
2021/01/23 07:44:05;;;;;;;22.45;11.10;;;384.40;1152.00;;;;;;4937169;29;20494;-69
2021/01/23 07:46:40;;;;;;;17.80;12.32;;;384.40;1126.40;;;;;;4936768;29;20587;-70
2021/01/23 07:49:07;;;;;;;15.40;9.98;;;384.60;1100.80;;;;;;4935945;29;20154;-68
2021/01/23 07:51:33;;;;;;;13.95;8.48;;;384.60;1126.40;;;;;;4937741;29;20102;-70
2021/01/23 07:54:06;;;;;;;16.65;10.93;;;384.50;1126.40;;;;;;4936899;29;20102;-70
2021/01/23 07:56:32;;;;;;;32.05;19.63;;;384.60;1126.40;;;;;;4936537;29;20055;-71
2021/01/23 07:58:58;;;;;;;28.25;18.25;;;384.60;1126.40;;;;;;4936822;29;20059;-70
2021/01/23 08:01:24;;;;;;;32.75;21.77;;;384.60;1126.40;;;;;;4936409;29;20032;-70
2021/01/23 08:03:50;;;;;;;21.85;11.75;;;384.60;1126.40;;;;;;4936500;29;20471;-70
2021/01/23 08:06:23;;;;;;;30.98;19.58;;;384.70;1100.80;;;;;;4936469;29;20032;-70
2021/01/23 08:08:49;;;;;;;25.02;13.73;;;384.90;1100.80;;;;;;4936489;29;20391;-70
2021/01/23 08:11:34;;;;;;;33.25;21.55;;;384.90;1100.80;;;;;;4936631;29;20024;-70
2021/01/23 08:14:07;;;;;;;33.03;19.63;;;384.90;1100.80;;;;;;4936584;29;20020;-70
2021/01/23 08:16:33;;;;;;;14.27;10.00;;;384.90;1100.80;;;;;;4936502;29;20058;-70
2021/01/23 08:19:05;;;;;;;25.85;17.95;;;384.90;1075.20;;;;;;4936445;29;20391;-70
2021/01/23 08:21:31;;;;;;;32.65;21.10;;;409.60;1126.40;;;;;;4936101;29;20533;-70
2021/01/23 08:23:57;;;;;;;45.38;27.98;;;384.90;1100.80;;;;;;4936330;29;20102;-70
2021/01/23 08:26:36;;;;;;;39.17;26.10;;;384.90;1100.80;;;;;;4936167;29;20028;-71
2021/01/23 08:29:02;;;;;;;33.88;24.00;;;409.60;1126.40;;;;;;4936341;29;20024;-69
2021/01/23 08:31:28;;;;;;;40.58;28.17;;;409.60;1126.40;;;;;;4936422;29;20035;-70
2021/01/23 08:33:55;;;;;;;43.85;26.02;;;409.80;1126.40;;;;;;4936084;29;20027;-70
2021/01/23 08:36:27;;;;;;;38.97;24.23;;;409.90;1100.80;;;;;;4935622;29;20039;-70
2021/01/23 08:39:03;;;;;;;24.67;13.63;;;410.00;1126.40;;;;;;4935905;29;20495;-70
2021/01/23 08:41:30;;;;;;;46.70;28.30;;;409.90;1100.80;;;;;;4935975;29;20047;-71
2021/01/23 08:43:56;;;;;;;65.68;43.40;;;409.70;1126.40;;;;;;4935198;29;20056;-70
2021/01/23 08:46:22;;;;;;;24.27;17.27;;;409.80;1126.40;;;;;;4936732;29;20039;-70
2021/01/23 08:48:50;;;;;;;24.65;15.40;;;409.90;1100.80;;;;;;4936143;29;20443;-70
2021/01/23 08:51:16;;;;;;;36.85;22.67;;;409.70;1126.40;;;;;;4935770;29;20530;-69
2021/01/23 08:53:42;;;;;;;31.38;20.42;;;409.60;1126.40;;;;;;4936001;29;20115;-70
2021/01/23 08:56:08;;;;;;;27.35;13.05;;;409.60;1126.40;;;;;;4935306;29;20430;-70
2021/01/23 08:58:34;;;;;;;28.70;18.33;;;409.70;1100.80;;;;;;4935392;29;20402;-70
2021/01/23 09:01:00;;;;;;;39.92;24.63;;;409.80;1100.80;;;;;;4935491;29;20051;-69
2021/01/23 09:03:25;;;;;;;32.40;17.80;;;409.80;1100.80;;;;;;4934422;29;20107;-70
2021/01/23 09:05:51;;;;;;;15.57;8.52;;;409.80;1100.80;;;;;;4935333;29;20554;-70
2021/01/23 09:08:17;;;;;;;16.20;8.82;;;409.80;1100.80;;;;;;4935508;29;20039;-70
2021/01/23 09:10:43;;;;;;;22.85;13.05;;;409.70;1100.80;;;;;;4935353;29;20019;-71
2021/01/23 09:13:09;;;;;;;27.45;14.27;;;409.80;1100.80;;;;;;4935619;29;20032;-69
2021/01/23 09:15:35;;;;;;;24.60;13.02;;;409.80;1100.80;;;;;;4935462;29;20074;-69
2021/01/23 09:18:00;;;;;;;19.08;10.80;;;409.80;1100.80;;;;;;4935465;29;20028;-70
2021/01/23 09:20:26;;;;;;;9.27;6.35;;;409.80;1100.80;;;;;;4935006;29;20075;-69
2021/01/23 09:22:52;;;;;;;10.73;7.05;;;409.70;1100.80;;;;;;4935278;29;20024;-70
2021/01/23 09:25:19;;;;;;;22.33;14.60;;;409.70;1100.80;;;;;;4935563;29;20024;-69
2021/01/23 09:27:45;;;;;;;15.18;10.00;;;409.70;1100.80;;;;;;4935316;29;20039;-71
2021/01/23 09:30:14;;;;;;;19.70;11.23;;;409.90;1100.80;;;;;;4935332;29;20083;-69
2021/01/23 09:32:40;;;;;;;14.70;7.78;;;409.90;1100.80;;;;;;4933845;29;20028;-70
2021/01/23 09:35:06;;;;;;;16.52;10.45;;;409.90;1075.20;;;;;;4935138;29;20479;-70
2021/01/23 09:37:32;;;;;;;22.17;11.95;;;410.00;1100.80;;;;;;4935202;29;20498;-71
2021/01/23 09:39:58;;;;;;;15.60;8.82;;;410.00;1100.80;;;;;;4935119;29;20035;-71
2021/01/23 09:42:24;;;;;;;28.50;15.18;;;410.00;1075.20;;;;;;4935765;29;20031;-72
2021/01/23 09:44:50;;;;;;;43.20;19.70;;;410.00;1100.80;;;;;;4935494;29;20028;-68
2021/01/23 09:47:17;;;;;;;40.10;21.02;;;410.00;1100.80;;;;;;4935485;29;20028;-71
2021/01/23 09:49:43;;;;;;;34.47;17.38;;;410.00;1075.20;;;;;;4935284;29;20028;-70
2021/01/23 09:52:08;;;;;;;38.70;21.10;;;410.20;1075.20;;;;;;4935397;29;20446;-70
2021/01/23 09:54:34;;;;;;;66.88;33.08;;;410.00;1100.80;;;;;;4936613;29;20628;-70
2021/01/23 09:57:03;;;;;;;30.80;16.35;;;409.90;1100.80;;;;;;4920189;29;20459;-72
2021/01/23 09:59:29;;;;;;;67.10;37.63;;;410.00;1100.80;;;;;;4920142;29;20040;-69
2021/01/23 10:01:55;;;;;;;60.10;28.45;;;410.20;1075.20;;;;;;4920092;29;20028;-70
2021/01/23 10:04:21;;;;;;;26.55;16.55;;;410.20;1075.20;;;;;;4919759;29;20091;-70
2021/01/23 10:06:46;;;;;;;34.38;17.60;;;410.30;1075.20;;;;;;4919805;29;20028;-69
2021/01/23 10:09:12;;;;;;;53.20;30.30;;;410.30;1075.20;;;;;;4920263;29;20051;-70
2021/01/23 10:11:38;;;;;;;88.25;49.65;;;410.30;1075.20;;;;;;4920018;29;20028;-69
2021/01/23 10:14:04;;;;;;;82.45;49.50;;;410.20;1075.20;;;;;;4920053;29;20024;-70
2021/01/23 10:16:30;;;;;;;40.83;22.90;;;410.20;1075.20;;;;;;4919880;29;20028;-69
2021/01/23 10:18:55;;;;;;;108.28;56.90;;;410.30;1075.20;;;;;;4919600;29;20051;-70
2021/01/23 10:21:21;;;;;;;30.83;19.80;;;410.40;1075.20;;;;;;4919500;29;20032;-70
2021/01/23 10:23:47;;;;;;;19.92;11.80;;;410.30;1075.20;;;;;;4919763;29;20475;-70
2021/01/23 10:26:13;;;;;;;25.05;14.15;;;410.40;1075.20;;;;;;4919560;29;20432;-70
2021/01/23 10:28:38;;;;;;;34.45;20.45;;;410.50;1075.20;;;;;;4919475;29;20467;-70
2021/01/23 10:31:04;;;;;;;18.60;10.15;;;435.20;1075.20;;;;;;4919516;29;20036;-71
2021/01/23 10:33:30;;;;;;;17.80;9.27;;;435.20;1049.60;;;;;;4919735;29;20463;-70
2021/01/23 10:35:55;;;;;;;17.52;11.15;;;435.30;1049.60;;;;;;4919057;29;20063;-69
2021/01/23 10:38:21;;;;;;;20.05;11.75;;;435.40;1024.00;;;;;;4919455;29;20059;-70
2021/01/23 10:40:47;;;;;;;15.38;10.75;;;435.40;1024.00;;;;;;4919377;29;20047;-70
2021/01/23 10:43:12;;;;;;;25.55;16.98;;;435.60;1024.00;;;;;;4919194;29;20028;-71
2021/01/23 10:45:38;;;;;;;21.13;13.13;;;435.70;998.40;;;;;;4919670;29;20036;-71
2021/01/23 10:48:06;;;;;;;100.65;55.30;;;435.90;998.40;;;;;;4919318;29;20087;-69
2021/01/23 10:50:31;;;;;;;33.95;23.05;;;436.10;998.40;;;;;;4919009;29;20492;-70
2021/01/23 10:52:57;;;;;;;26.58;15.05;;;460.80;1024.00;;;;;;4919233;29;20036;-71
2021/01/23 10:55:23;;;;;;;9.95;7.53;;;461.10;998.40;;;;;;4925325;29;20438;-70
2021/01/23 10:57:48;;;;;;;17.77;12.63;;;461.20;947.20;;;;;;4934606;29;20028;-71
2021/01/23 11:00:15;;;;;;;34.28;16.98;;;461.40;947.20;;;;;;4919049;29;20123;-70
2021/01/23 11:02:41;;;;;;;23.50;13.40;;;461.50;947.20;;;;;;4919452;29;20028;-70
2021/01/23 11:05:08;;;;;;;23.10;14.90;;;461.70;947.20;;;;;;4918866;29;20028;-70
2021/01/23 11:07:33;;;;;;;30.25;16.10;;;461.70;947.20;;;;;;4937345;29;20034;-71
2021/01/23 11:09:59;;;;;;;30.67;22.40;;;486.50;947.20;;;;;;4938146;29;20562;-71
2021/01/23 11:12:25;;;;;;;27.20;17.17;;;486.50;921.60;;;;;;4937816;29;20059;-70
2021/01/23 11:14:50;;;;;;;8.80;5.90;;;486.70;921.60;;;;;;4937563;29;20026;-71
2021/01/23 11:17:16;;;;;;;9.93;7.03;;;486.80;896.00;;;;;;4937404;29;20025;-71
2021/01/23 11:19:42;;;;;;;8.40;5.70;;;486.80;870.40;;;;;;4937351;29;20044;-71
2021/01/23 11:22:07;;;;;;;27.60;17.58;;;486.60;896.00;;;;;;4937175;29;20019;-71
2021/01/23 11:24:33;;;;;;;35.08;23.77;;;486.70;896.00;;;;;;4937511;29;20036;-71
2021/01/23 11:26:59;;;;;;;15.88;11.55;;;486.80;896.00;;;;;;4937332;29;20147;-69
2021/01/23 11:29:25;;;;;;;69.80;42.20;;;487.00;870.40;;;;;;4937361;29;20110;-71
2021/01/23 11:31:51;;;;;;;24.05;14.93;;;487.20;896.00;;;;;;4937271;29;20123;-70
2021/01/23 11:34:17;;;;;;;28.30;20.10;;;487.20;870.40;;;;;;4937310;29;20162;-69
2021/01/23 11:36:42;;;;;;;24.30;16.88;;;512.20;870.40;;;;;;4932124;29;20028;-71
2021/01/23 11:39:08;;;;;;;42.35;16.13;;;512.30;844.80;;;;;;4937145;29;20177;-71
2021/01/23 11:41:34;;;;;;;34.30;20.25;;;512.40;870.40;;;;;;4937051;29;20036;-71
2021/01/23 11:44:00;;;;;;;33.38;24.75;;;512.60;870.40;;;;;;4937214;29;20032;-70
2021/01/23 11:46:27;;;;;;;45.35;18.08;;;512.60;844.80;;;;;;4936825;29;20031;-71
2021/01/23 11:48:53;;;;;;;29.92;20.05;;;512.70;844.80;;;;;;4936981;29;20107;-70
2021/01/23 11:51:18;;;;;;;14.35;9.10;;;512.80;844.80;;;;;;4936817;29;20175;-71
2021/01/23 11:53:44;;;;;;;25.17;16.23;;;512.60;844.80;;;;;;4936631;29;20032;-70
2021/01/23 11:56:10;;;;;;;17.02;11.55;;;512.40;844.80;;;;;;4936721;29;20380;-72
2021/01/23 11:58:36;;;;;;;65.45;24.38;;;512.20;844.80;;;;;;4936680;29;20099;-71
2021/01/23 12:01:01;;;;;;;30.63;18.55;;;512.10;870.40;;;;;;4936703;29;20035;-71
2021/01/23 12:03:27;;;;;;;34.35;13.15;;;512.00;896.00;;;;;;4936687;29;20024;-71
2021/01/23 12:05:53;;;;;;;41.55;27.67;;;487.20;870.40;;;;;;4936780;29;20027;-70